createdAt,value
2023-03-17T00:00:54.704Z,32.15
2023-03-17T00:01:56.681Z,29.17
2023-03-17T00:02:58.229Z,27.42
2023-03-17T00:03:59.814Z,27.03
2023-03-17T00:05:01.516Z,28.35
2023-03-17T00:06:04.092Z,28.60
2023-03-17T00:07:06.025Z,28.43
2023-03-17T00:08:20.274Z,28.10
2023-03-17T00:09:21.937Z,27.75
2023-03-17T00:10:25.845Z,24.38
2023-03-17T00:11:27.889Z,20.67
2023-03-17T00:12:35.545Z,17.23
2023-03-17T00:13:37.086Z,14.78
2023-03-17T00:14:38.786Z,15.87
2023-03-17T00:15:40.558Z,15.05
2023-03-17T00:16:44.814Z,14.55
2023-03-17T00:17:48.052Z,14.07
2023-03-17T00:18:51.805Z,13.83
2023-03-17T00:19:53.662Z,14.28
2023-03-17T00:20:55.422Z,14.05
2023-03-17T00:21:58.324Z,13.57
2023-03-17T00:23:01.584Z,13.65
2023-03-17T00:24:03.251Z,14.90
2023-03-17T00:25:18.001Z,15.35
2023-03-17T00:26:19.757Z,16.25
2023-03-17T00:27:21.309Z,16.25
2023-03-17T00:28:25.853Z,15.78
2023-03-17T00:29:27.600Z,15.55
2023-03-17T00:30:29.416Z,17.05
2023-03-17T00:31:31.669Z,18.27
2023-03-17T00:32:33.415Z,20.85
2023-03-17T00:33:36.356Z,24.50
2023-03-17T00:34:38.065Z,26.15
2023-03-17T00:35:39.837Z,25.72
2023-03-17T00:36:44.422Z,25.55
2023-03-17T00:37:48.776Z,26.17
2023-03-17T00:38:51.187Z,24.97
2023-03-17T00:39:53.001Z,24.07
2023-03-17T00:40:54.597Z,25.65
2023-03-17T00:41:56.141Z,25.93
2023-03-17T00:42:59.346Z,26.13
2023-03-17T00:44:01.017Z,26.05
2023-03-17T00:45:02.859Z,25.17
2023-03-17T00:46:15.724Z,25.85
2023-03-17T00:47:17.352Z,25.40
2023-03-17T00:48:21.220Z,25.88
2023-03-17T00:49:24.731Z,25.42
2023-03-17T00:50:28.674Z,24.05
2023-03-17T00:51:30.406Z,24.33
2023-03-17T00:52:31.997Z,22.93
2023-03-17T00:53:33.658Z,22.38
2023-03-17T00:54:35.202Z,22.60
2023-03-17T00:55:36.969Z,23.35
2023-03-17T00:56:40.464Z,23.23
2023-03-17T00:57:42.666Z,23.03
2023-03-17T00:58:44.922Z,22.72
2023-03-17T00:59:46.724Z,21.62
2023-03-17T01:00:48.542Z,21.67
2023-03-17T01:01:50.189Z,21.75
2023-03-17T01:02:53.834Z,22.20
2023-03-17T01:03:55.489Z,22.35
2023-03-17T01:05:05.680Z,22.18
2023-03-17T01:06:12.019Z,22.27
2023-03-17T01:07:13.891Z,22.62
2023-03-17T01:08:15.655Z,21.25
2023-03-17T01:09:19.136Z,22.07
2023-03-17T01:10:24.648Z,21.38
2023-03-17T01:11:26.336Z,21.25
2023-03-17T01:12:27.878Z,21.67
2023-03-17T01:13:29.498Z,22.02
2023-03-17T01:14:31.065Z,22.12
2023-03-17T01:15:34.130Z,21.78
2023-03-17T01:16:35.787Z,22.25
2023-03-17T01:17:37.382Z,28.72
2023-03-17T01:18:39.966Z,36.90
2023-03-17T01:19:41.573Z,37.25
2023-03-17T01:20:43.917Z,37.97
2023-03-17T01:21:45.487Z,35.97
2023-03-17T01:22:47.937Z,35.23
2023-03-17T01:23:49.528Z,32.70
2023-03-17T01:24:51.306Z,28.85
2023-03-17T01:25:53.034Z,26.65
2023-03-17T01:26:54.593Z,29.38
2023-03-17T01:27:58.028Z,32.47
2023-03-17T01:28:59.653Z,33.70
2023-03-17T01:30:01.197Z,34.00
2023-03-17T01:31:02.996Z,32.33
2023-03-17T01:32:05.175Z,29.78
2023-03-17T01:33:09.444Z,24.97
2023-03-17T01:34:10.981Z,22.87
2023-03-17T01:35:13.026Z,21.33
2023-03-17T01:36:14.813Z,20.92
2023-03-17T01:37:16.404Z,18.40
2023-03-17T01:38:18.937Z,18.08
2023-03-17T01:39:20.554Z,19.52
2023-03-17T01:40:25.793Z,20.48
2023-03-17T01:41:27.496Z,22.18
2023-03-17T01:42:29.531Z,23.85
2023-03-17T01:43:31.526Z,22.32
2023-03-17T01:44:33.205Z,23.47
2023-03-17T01:46:11.737Z,24.22
2023-03-17T01:47:14.991Z,21.50
2023-03-17T01:48:18.613Z,23.20
2023-03-17T01:49:34.382Z,24.27
2023-03-17T01:50:36.053Z,22.58
2023-03-17T01:51:50.619Z,21.55
2023-03-17T01:52:52.397Z,20.23
2023-03-17T01:53:55.069Z,19.98
2023-03-17T01:55:05.577Z,19.55
2023-03-17T01:56:07.858Z,17.93
2023-03-17T01:57:22.784Z,16.73
2023-03-17T01:58:26.326Z,16.28
2023-03-17T01:59:33.961Z,14.47
2023-03-17T02:00:35.666Z,15.15
2023-03-17T02:01:41.014Z,14.28
2023-03-17T02:02:50.221Z,13.72
2023-03-17T02:03:53.142Z,12.55
2023-03-17T02:04:55.258Z,12.67
2023-03-17T02:05:57.743Z,13.07
2023-03-17T02:07:00.004Z,13.57
2023-03-17T02:08:01.565Z,13.65
2023-03-17T02:09:03.207Z,14.55
2023-03-17T02:10:06.117Z,17.32
2023-03-17T02:11:07.759Z,17.77
2023-03-17T02:12:10.222Z,18.00
2023-03-17T02:13:14.476Z,31.07
2023-03-17T02:14:16.345Z,38.35
2023-03-17T02:15:18.237Z,40.37
2023-03-17T02:16:21.328Z,35.62
2023-03-17T02:17:26.069Z,32.22
2023-03-17T02:18:27.633Z,28.38
2023-03-17T02:19:29.393Z,23.88
2023-03-17T02:20:33.299Z,27.23
2023-03-17T02:21:43.836Z,36.80
2023-03-17T02:22:49.539Z,39.67
2023-03-17T02:23:51.109Z,35.48
2023-03-17T02:24:59.435Z,27.32
2023-03-17T02:26:01.256Z,27.97
2023-03-17T02:27:32.385Z,28.15
2023-03-17T02:28:34.580Z,25.23
2023-03-17T02:29:36.161Z,24.33
2023-03-17T02:30:37.782Z,23.17
2023-03-17T02:31:39.427Z,21.13
2023-03-17T02:32:41.313Z,17.63
2023-03-17T02:33:42.942Z,18.62
2023-03-17T02:34:48.531Z,18.37
2023-03-17T02:35:50.167Z,17.85
2023-03-17T02:36:51.802Z,18.12
2023-03-17T02:37:53.625Z,16.57
2023-03-17T02:38:55.250Z,16.72
2023-03-17T02:39:57.069Z,16.27
2023-03-17T02:40:58.634Z,15.68
2023-03-17T02:42:00.581Z,15.90
2023-03-17T02:43:02.785Z,15.82
2023-03-17T02:44:04.637Z,16.30
2023-03-17T02:45:08.530Z,18.00
2023-03-17T02:46:10.163Z,21.55
2023-03-17T02:47:13.038Z,25.77
2023-03-17T02:48:15.193Z,27.13
2023-03-17T02:49:17.779Z,23.55
2023-03-17T02:50:22.931Z,21.85
2023-03-17T02:51:24.541Z,18.68
2023-03-17T02:52:26.122Z,16.58
2023-03-17T02:53:27.757Z,16.27
2023-03-17T02:54:29.428Z,19.85
2023-03-17T02:55:31.101Z,19.30
2023-03-17T02:56:32.697Z,19.75
2023-03-17T02:57:34.288Z,20.15
2023-03-17T02:58:36.144Z,18.23
2023-03-17T02:59:37.930Z,16.63
2023-03-17T03:00:39.541Z,14.08
2023-03-17T03:01:41.146Z,13.37
2023-03-17T03:02:42.790Z,13.42
2023-03-17T03:03:44.680Z,12.93
2023-03-17T03:04:46.289Z,11.83
2023-03-17T03:05:47.858Z,11.58
2023-03-17T03:06:49.436Z,12.18
2023-03-17T03:07:50.989Z,12.37
2023-03-17T03:08:53.838Z,11.67
2023-03-17T03:09:55.385Z,11.83
2023-03-17T03:10:56.942Z,11.72
2023-03-17T03:11:58.528Z,12.60
2023-03-17T03:13:00.082Z,12.22
2023-03-17T03:14:01.813Z,12.07
2023-03-17T03:15:03.593Z,12.02
2023-03-17T03:16:05.527Z,12.88
2023-03-17T03:17:07.260Z,14.52
2023-03-17T03:18:08.857Z,14.42
2023-03-17T03:19:10.677Z,12.97
2023-03-17T03:20:12.584Z,14.40
2023-03-17T03:21:14.234Z,13.58
2023-03-17T03:22:15.841Z,14.02
2023-03-17T03:23:17.452Z,16.03
2023-03-17T03:24:19.165Z,21.05
2023-03-17T03:25:20.713Z,16.63
2023-03-17T03:26:22.344Z,14.28
2023-03-17T03:27:23.984Z,13.82
2023-03-17T03:28:25.544Z,13.00
2023-03-17T03:29:27.353Z,13.17
2023-03-17T03:30:29.120Z,13.15
2023-03-17T03:31:30.863Z,13.45
2023-03-17T03:32:32.843Z,14.98
2023-03-17T03:33:34.913Z,14.57
2023-03-17T03:34:36.490Z,14.92
2023-03-17T03:35:38.164Z,19.42
2023-03-17T03:36:39.720Z,19.47
2023-03-17T03:37:41.303Z,17.92
2023-03-17T03:38:42.876Z,17.35
2023-03-17T03:39:44.604Z,20.38
2023-03-17T03:40:46.221Z,18.30
2023-03-17T03:41:47.825Z,15.73
2023-03-17T03:42:49.492Z,15.70
2023-03-17T03:43:52.239Z,16.83
2023-03-17T03:44:54.040Z,19.78
2023-03-17T03:45:55.738Z,19.05
2023-03-17T03:46:57.336Z,18.25
2023-03-17T03:47:59.159Z,16.90
2023-03-17T03:49:00.736Z,17.82
2023-03-17T03:50:02.487Z,18.63
2023-03-17T03:51:04.098Z,15.93
2023-03-17T03:52:05.973Z,15.93
2023-03-17T03:53:07.689Z,17.25
2023-03-17T03:54:09.394Z,17.03
2023-03-17T03:55:11.432Z,17.38
2023-03-17T03:56:12.977Z,16.55
2023-03-17T03:57:14.571Z,15.13
2023-03-17T03:58:16.128Z,13.95
2023-03-17T03:59:17.656Z,16.37
2023-03-17T04:00:19.729Z,16.93
2023-03-17T04:01:21.312Z,14.68
2023-03-17T04:02:23.013Z,14.47
2023-03-17T04:03:24.604Z,14.75
2023-03-17T04:04:26.164Z,16.30
2023-03-17T04:05:27.852Z,17.85
2023-03-17T04:06:29.437Z,16.55
2023-03-17T04:07:30.997Z,15.28
2023-03-17T04:08:32.588Z,13.47
2023-03-17T04:09:34.129Z,15.38
2023-03-17T04:10:35.831Z,14.80
2023-03-17T04:11:37.397Z,14.05
2023-03-17T04:12:39.529Z,13.73
2023-03-17T04:13:41.130Z,13.45
2023-03-17T04:14:42.781Z,12.48
2023-03-17T04:15:44.516Z,11.55
2023-03-17T04:16:46.077Z,10.52
2023-03-17T04:17:47.766Z,10.83
2023-03-17T04:18:49.418Z,10.50
2023-03-17T04:19:51.347Z,10.17
2023-03-17T04:20:55.598Z,10.35
2023-03-17T04:21:57.150Z,10.38
2023-03-17T04:22:58.693Z,10.18
2023-03-17T04:24:00.285Z,10.40
2023-03-17T04:25:02.013Z,10.05
2023-03-17T04:26:03.835Z,10.42
2023-03-17T04:27:06.215Z,10.20
2023-03-17T04:28:07.966Z,10.12
2023-03-17T04:29:09.550Z,10.45
2023-03-17T04:30:12.370Z,10.42
2023-03-17T04:31:14.107Z,10.57
2023-03-17T04:32:15.748Z,10.27
2023-03-17T04:33:17.441Z,9.65
2023-03-17T04:34:19.533Z,10.50
2023-03-17T04:35:22.127Z,10.20
2023-03-17T04:36:24.397Z,12.82
2023-03-17T04:37:26.030Z,24.45
2023-03-17T04:38:27.642Z,29.43
2023-03-17T04:39:29.206Z,34.93
2023-03-17T04:40:30.979Z,31.67
2023-03-17T04:41:32.856Z,32.27
2023-03-17T04:42:34.456Z,31.57
2023-03-17T04:43:36.005Z,31.42
2023-03-17T04:44:37.710Z,28.57
2023-03-17T04:45:39.323Z,28.37
2023-03-17T04:46:41.066Z,29.65
2023-03-17T04:47:43.258Z,29.25
2023-03-17T04:48:44.788Z,29.00
2023-03-17T04:49:46.377Z,28.50
2023-03-17T04:50:48.314Z,26.53
2023-03-17T04:51:49.931Z,25.83
2023-03-17T04:52:51.499Z,24.78
2023-03-17T04:53:53.091Z,24.75
2023-03-17T04:54:54.674Z,24.12
2023-03-17T04:55:56.516Z,24.82
2023-03-17T04:56:58.125Z,25.17
2023-03-17T04:57:59.776Z,28.02
2023-03-17T04:59:01.636Z,26.98
2023-03-17T05:00:06.008Z,25.00
2023-03-17T05:01:07.833Z,25.60
2023-03-17T05:02:09.428Z,25.32
2023-03-17T05:03:25.807Z,26.45
2023-03-17T05:04:31.613Z,26.63
2023-03-17T05:05:34.763Z,25.12
2023-03-17T05:06:36.545Z,24.52
2023-03-17T05:07:38.394Z,24.75
2023-03-17T05:08:40.059Z,24.35
2023-03-17T05:09:41.744Z,20.90
2023-03-17T05:10:43.997Z,17.83
2023-03-17T05:11:45.753Z,16.67
2023-03-17T05:12:47.300Z,16.52
2023-03-17T05:13:48.894Z,17.93
2023-03-17T05:14:50.470Z,17.72
2023-03-17T05:15:54.716Z,18.08
2023-03-17T05:16:56.485Z,17.05
2023-03-17T05:17:58.045Z,15.97
2023-03-17T05:18:59.601Z,14.40
2023-03-17T05:20:01.167Z,13.43
2023-03-17T05:21:03.415Z,13.72
2023-03-17T05:22:05.487Z,13.58
2023-03-17T05:23:07.233Z,12.38
2023-03-17T05:24:08.878Z,12.25
2023-03-17T05:25:10.524Z,12.45
2023-03-17T05:26:12.089Z,13.40
2023-03-17T05:27:13.826Z,16.17
2023-03-17T05:28:15.866Z,17.87
2023-03-17T05:29:17.433Z,17.18
2023-03-17T05:30:19.090Z,21.32
2023-03-17T05:31:20.679Z,21.73
2023-03-17T05:32:22.391Z,20.23
2023-03-17T05:33:24.407Z,19.97
2023-03-17T05:34:26.183Z,19.25
2023-03-17T05:35:28.014Z,20.02
2023-03-17T05:36:29.663Z,20.83
2023-03-17T05:37:31.402Z,24.30
2023-03-17T05:38:32.978Z,22.10
2023-03-17T05:39:34.636Z,22.18
2023-03-17T05:40:36.333Z,21.97
2023-03-17T05:41:37.910Z,22.00
2023-03-17T05:42:39.625Z,24.85
2023-03-17T05:43:41.169Z,26.57
2023-03-17T05:44:42.710Z,29.90
2023-03-17T05:45:44.357Z,29.47
2023-03-17T05:46:45.963Z,21.37
2023-03-17T05:47:47.692Z,21.18
2023-03-17T05:48:49.253Z,21.07
2023-03-17T05:49:50.838Z,18.58
2023-03-17T05:50:52.418Z,16.80
2023-03-17T05:51:54.792Z,15.15
2023-03-17T05:52:56.409Z,14.82
2023-03-17T05:53:57.987Z,14.62
2023-03-17T05:54:59.541Z,14.80
2023-03-17T05:56:01.188Z,14.98
2023-03-17T05:57:02.818Z,14.47
2023-03-17T05:58:04.549Z,14.98
2023-03-17T05:59:06.070Z,15.62
2023-03-17T06:00:08.516Z,16.30
2023-03-17T06:01:10.168Z,16.53
2023-03-17T06:02:12.107Z,16.73
2023-03-17T06:03:14.184Z,16.70
2023-03-17T06:04:15.782Z,15.75
2023-03-17T06:05:17.419Z,16.13
2023-03-17T06:06:18.980Z,17.58
2023-03-17T06:07:20.574Z,18.27
2023-03-17T06:08:22.233Z,17.75
2023-03-17T06:09:23.825Z,17.28
2023-03-17T06:10:25.794Z,17.17
2023-03-17T06:11:27.775Z,17.20
2023-03-17T06:12:29.445Z,16.75
2023-03-17T06:13:31.196Z,16.57
2023-03-17T06:14:32.926Z,17.05
2023-03-17T06:15:34.733Z,17.78
2023-03-17T06:16:36.410Z,18.17
2023-03-17T06:17:38.003Z,17.47
2023-03-17T06:18:40.014Z,17.60
2023-03-17T06:19:41.619Z,16.97
2023-03-17T06:20:43.149Z,18.00
2023-03-17T06:21:44.719Z,19.90
2023-03-17T06:23:02.303Z,21.88
2023-03-17T06:24:04.528Z,25.02
2023-03-17T06:25:06.518Z,24.27
2023-03-17T06:26:08.083Z,23.63
2023-03-17T06:27:09.629Z,23.12
2023-03-17T06:28:11.272Z,22.77
2023-03-17T06:29:13.097Z,22.93
2023-03-17T06:30:14.716Z,23.18
2023-03-17T06:31:16.371Z,21.43
2023-03-17T06:32:20.913Z,17.80
2023-03-17T06:33:22.789Z,17.03
2023-03-17T06:34:24.660Z,16.27
2023-03-17T06:35:26.262Z,16.87
2023-03-17T06:36:27.834Z,17.15
2023-03-17T06:37:29.365Z,16.23
2023-03-17T06:38:30.925Z,17.22
2023-03-17T06:39:32.505Z,17.20
2023-03-17T06:40:34.089Z,17.32
2023-03-17T06:41:35.653Z,17.58
2023-03-17T06:42:37.186Z,17.07
2023-03-17T06:43:38.760Z,16.93
2023-03-17T06:44:40.791Z,17.70
2023-03-17T06:45:42.412Z,17.45
2023-03-17T06:46:44.012Z,17.12
2023-03-17T06:47:45.628Z,17.67
2023-03-17T06:48:47.193Z,17.12
2023-03-17T06:49:48.884Z,16.45
2023-03-17T06:50:50.456Z,16.08
2023-03-17T06:51:52.068Z,15.30
2023-03-17T06:52:53.687Z,16.30
2023-03-17T06:53:55.827Z,15.10
2023-03-17T06:54:57.657Z,15.50
2023-03-17T06:55:59.228Z,15.75
2023-03-17T06:57:00.804Z,14.35
2023-03-17T06:58:02.366Z,14.55
2023-03-17T06:59:04.205Z,14.67
2023-03-17T07:00:06.906Z,14.18
2023-03-17T07:01:08.726Z,14.47
2023-03-17T07:02:11.792Z,14.62
2023-03-17T07:03:13.393Z,13.00
2023-03-17T07:04:16.001Z,13.65
2023-03-17T07:05:17.878Z,13.47
2023-03-17T07:06:19.522Z,14.72
2023-03-17T07:07:21.123Z,14.70
2023-03-17T07:08:22.712Z,14.22
2023-03-17T07:09:24.253Z,13.93
2023-03-17T07:10:25.941Z,13.55
2023-03-17T07:11:27.514Z,13.77
2023-03-17T07:12:29.065Z,13.37
2023-03-17T07:13:30.953Z,12.52
2023-03-17T07:14:34.010Z,12.88
2023-03-17T07:15:36.437Z,13.37
2023-03-17T07:16:38.077Z,14.72
2023-03-17T07:17:39.672Z,14.28
2023-03-17T07:18:41.245Z,14.22
2023-03-17T07:19:42.907Z,13.30
2023-03-17T07:20:44.682Z,12.62
2023-03-17T07:21:47.170Z,11.85
2023-03-17T07:22:48.755Z,12.02
2023-03-17T07:23:50.305Z,11.97
2023-03-17T07:24:51.967Z,13.48
2023-03-17T07:25:54.001Z,14.43
2023-03-17T07:26:55.632Z,13.65
2023-03-17T07:27:57.178Z,14.08
2023-03-17T07:28:58.783Z,14.67
2023-03-17T07:30:00.360Z,14.78
2023-03-17T07:31:02.225Z,13.75
2023-03-17T07:32:04.137Z,13.18
2023-03-17T07:33:05.776Z,15.93
2023-03-17T07:34:07.382Z,18.15
2023-03-17T07:35:09.120Z,18.10
2023-03-17T07:36:10.924Z,18.13
2023-03-17T07:37:12.608Z,19.88
2023-03-17T07:38:14.643Z,20.63
2023-03-17T07:39:16.284Z,21.25
2023-03-17T07:40:17.852Z,19.78
2023-03-17T07:41:19.446Z,17.18
2023-03-17T07:42:21.024Z,17.93
2023-03-17T07:43:22.558Z,20.53
2023-03-17T07:44:25.205Z,19.73
2023-03-17T07:45:26.923Z,17.58
2023-03-17T07:46:28.988Z,17.43
2023-03-17T07:47:30.578Z,19.35
2023-03-17T07:48:32.189Z,21.05
2023-03-17T07:49:40.896Z,20.32
2023-03-17T07:50:43.602Z,19.97
2023-03-17T07:51:45.241Z,18.78
2023-03-17T07:52:46.850Z,16.92
2023-03-17T07:53:49.370Z,10.63
2023-03-17T07:54:50.973Z,15.68
2023-03-17T07:55:52.526Z,8.83
2023-03-17T07:56:54.633Z,4.82
2023-03-17T07:57:56.394Z,5.60
2023-03-17T07:58:58.597Z,4.45
2023-03-17T08:00:00.232Z,5.07
2023-03-17T08:01:01.834Z,4.63
2023-03-17T08:02:03.883Z,11.87
2023-03-17T08:03:10.337Z,10.75
2023-03-17T08:04:12.592Z,4.77
2023-03-17T08:05:17.139Z,4.88
2023-03-17T08:06:18.836Z,4.53
2023-03-17T08:07:20.651Z,4.63
2023-03-17T08:08:23.255Z,4.22
2023-03-17T08:09:24.933Z,4.73
2023-03-17T08:10:26.532Z,4.77
2023-03-17T08:11:29.445Z,6.77
2023-03-17T08:12:31.402Z,5.32
2023-03-17T08:13:34.196Z,6.52
2023-03-17T08:14:35.752Z,4.55
2023-03-17T08:15:37.391Z,6.77
2023-03-17T08:16:39.057Z,7.50
2023-03-17T08:17:40.757Z,4.18
2023-03-17T08:18:42.386Z,27.08
2023-03-17T08:19:43.966Z,6.85
2023-03-17T08:20:45.522Z,5.10
2023-03-17T08:21:47.065Z,4.75
2023-03-17T08:22:48.853Z,5.17
2023-03-17T08:23:50.447Z,6.03
2023-03-17T08:24:52.065Z,5.90
2023-03-17T08:26:01.746Z,13.18
2023-03-17T08:27:03.658Z,31.53
2023-03-17T08:28:05.730Z,14.38
2023-03-17T08:29:07.445Z,10.13
2023-03-17T08:30:09.985Z,4.60
2023-03-17T08:31:14.978Z,5.03
2023-03-17T08:32:17.357Z,4.42
2023-03-17T08:33:19.158Z,4.68
2023-03-17T08:34:20.743Z,8.27
2023-03-17T08:35:22.490Z,8.47
2023-03-17T08:36:24.164Z,6.90
2023-03-17T08:37:25.838Z,6.57
2023-03-17T08:38:27.547Z,8.22
2023-03-17T08:39:30.052Z,5.22
2023-03-17T08:40:31.931Z,5.03
2023-03-17T08:41:33.930Z,6.30
2023-03-17T08:42:35.918Z,5.25
2023-03-17T08:43:37.732Z,4.47
2023-03-17T08:44:39.277Z,4.33
2023-03-17T08:45:40.996Z,4.33
2023-03-17T08:46:43.160Z,3.98
2023-03-17T08:47:45.464Z,4.02
2023-03-17T08:48:49.321Z,3.98
2023-03-17T08:49:50.870Z,4.33
2023-03-17T08:50:52.448Z,4.82
2023-03-17T08:51:54.087Z,17.12
2023-03-17T08:52:55.625Z,21.68
2023-03-17T08:53:58.080Z,6.53
2023-03-17T08:54:59.667Z,13.98
2023-03-17T08:56:02.163Z,17.42
2023-03-17T08:57:03.782Z,6.90
2023-03-17T08:58:05.473Z,4.02
2023-03-17T08:59:08.118Z,4.03
2023-03-17T09:00:11.169Z,3.78
2023-03-17T09:01:12.908Z,7.30
2023-03-17T09:02:14.804Z,6.78
2023-03-17T09:03:16.464Z,12.12
2023-03-17T09:04:18.268Z,17.30
2023-03-17T09:05:19.807Z,7.33
2023-03-17T09:06:21.864Z,6.43
2023-03-17T09:07:23.426Z,7.07
2023-03-17T09:08:26.533Z,8.53
2023-03-17T09:09:28.149Z,3.83
2023-03-17T09:10:29.866Z,4.25
2023-03-17T09:11:31.866Z,4.52
2023-03-17T09:12:34.286Z,4.23
2023-03-17T09:13:36.497Z,5.45
2023-03-17T09:14:43.860Z,6.70
2023-03-17T09:15:46.071Z,4.80
2023-03-17T09:16:47.673Z,4.20
2023-03-17T09:17:49.325Z,11.23
2023-03-17T09:18:51.543Z,8.70
2023-03-17T09:19:53.180Z,4.47
2023-03-17T09:20:54.736Z,5.25
2023-03-17T09:21:56.336Z,5.93
2023-03-17T09:22:58.225Z,4.95
2023-03-17T09:24:02.270Z,4.47
2023-03-17T09:25:04.615Z,4.08
2023-03-17T09:26:06.420Z,4.07
2023-03-17T09:27:08.053Z,4.43
2023-03-17T09:28:12.285Z,4.28
2023-03-17T09:29:13.880Z,3.97
2023-03-17T09:30:16.387Z,5.37
2023-03-17T09:31:17.972Z,4.78
2023-03-17T09:32:19.538Z,3.85
2023-03-17T09:33:21.082Z,5.43
2023-03-17T09:34:23.084Z,4.65
2023-03-17T09:35:24.977Z,9.78
2023-03-17T09:36:26.565Z,12.37
2023-03-17T09:37:28.117Z,10.67
2023-03-17T09:38:29.676Z,7.90
2023-03-17T09:39:31.213Z,4.12
2023-03-17T09:40:39.948Z,4.47
2023-03-17T09:42:08.429Z,7.02
2023-03-17T09:43:48.274Z,5.38
2023-03-17T09:45:29.216Z,4.37
2023-03-17T09:47:01.797Z,5.25
2023-03-17T09:48:06.341Z,4.13
2023-03-17T09:49:48.551Z,4.23
2023-03-17T09:51:07.730Z,14.60
2023-03-17T09:52:16.720Z,5.40
2023-03-17T09:53:25.827Z,5.13
2023-03-17T09:54:35.902Z,4.12
2023-03-17T09:55:38.040Z,4.22
2023-03-17T09:56:45.833Z,5.53
2023-03-17T09:57:50.722Z,5.57
2023-03-17T09:58:59.927Z,3.68
2023-03-17T10:00:20.556Z,3.95
2023-03-17T10:01:22.626Z,3.98
2023-03-17T10:02:29.495Z,4.05
2023-03-17T10:03:32.277Z,3.65
2023-03-17T10:04:33.860Z,3.97
2023-03-17T10:05:36.476Z,4.05
2023-03-17T10:06:43.648Z,4.22
2023-03-17T10:07:58.018Z,4.03
2023-03-17T10:09:26.631Z,4.50
2023-03-17T10:10:49.252Z,5.42
2023-03-17T10:12:08.521Z,7.22
2023-03-17T10:13:42.201Z,3.93
2023-03-17T10:14:58.544Z,5.23
2023-03-17T10:16:14.666Z,3.77
2023-03-17T10:17:35.327Z,3.88
2023-03-17T10:18:54.152Z,4.63
2023-03-17T10:20:02.502Z,4.37
2023-03-17T10:21:07.639Z,4.90
2023-03-17T10:22:20.086Z,5.25
2023-03-17T10:23:27.569Z,4.40
2023-03-17T10:24:33.019Z,4.50
2023-03-17T10:25:36.333Z,4.05
2023-03-17T10:26:46.486Z,4.42
2023-03-17T10:28:01.285Z,4.98
2023-03-17T10:29:03.509Z,5.07
2023-03-17T10:30:13.797Z,4.73
2023-03-17T10:31:26.456Z,4.13
2023-03-17T10:32:31.101Z,4.38
2023-03-17T10:33:32.702Z,4.28
2023-03-17T10:34:38.005Z,4.10
2023-03-17T10:35:39.877Z,4.58
2023-03-17T10:36:48.652Z,4.58
2023-03-17T10:37:50.530Z,4.80
2023-03-17T10:38:53.045Z,5.52
2023-03-17T10:39:57.410Z,7.45
2023-03-17T10:41:00.972Z,6.28
2023-03-17T10:42:21.149Z,5.03
2023-03-17T10:43:23.307Z,7.73
2023-03-17T10:44:49.165Z,5.80
2023-03-17T10:46:06.546Z,4.38
2023-03-17T10:47:23.589Z,4.78
2023-03-17T10:48:25.341Z,5.17
2023-03-17T10:49:26.911Z,4.28
2023-03-17T10:50:31.609Z,5.43
2023-03-17T10:51:36.278Z,6.95
2023-03-17T10:52:39.378Z,5.50
2023-03-17T10:53:41.728Z,6.23
2023-03-17T10:54:48.359Z,5.58
2023-03-17T10:55:52.644Z,5.33
2023-03-17T10:57:08.220Z,6.60
2023-03-17T10:58:19.646Z,5.12
2023-03-17T10:59:27.878Z,5.30
2023-03-17T11:00:33.393Z,4.47
2023-03-17T11:01:58.563Z,4.45
2023-03-17T11:03:00.175Z,5.07
2023-03-17T11:04:02.641Z,4.82
2023-03-17T11:05:07.972Z,4.95
2023-03-17T11:06:14.510Z,5.02
2023-03-17T11:07:17.682Z,4.85
2023-03-17T11:08:19.776Z,4.90
2023-03-17T11:09:21.710Z,4.72
2023-03-17T11:10:26.770Z,5.53
2023-03-17T11:11:34.287Z,5.05
2023-03-17T11:12:39.355Z,4.78
2023-03-17T11:13:40.961Z,4.93
2023-03-17T11:14:43.973Z,5.10
2023-03-17T11:16:23.914Z,4.90
2023-03-17T11:17:39.747Z,5.33
2023-03-17T11:18:42.022Z,5.08
2023-03-17T11:19:58.147Z,4.98
2023-03-17T11:21:09.008Z,5.33
2023-03-17T11:22:36.444Z,6.08
2023-03-17T11:24:12.273Z,8.25
2023-03-17T11:25:19.088Z,6.73
2023-03-17T11:26:35.629Z,6.03
2023-03-17T11:27:48.892Z,6.67
2023-03-17T11:29:14.804Z,6.95
2023-03-17T11:30:28.209Z,5.60
2023-03-17T11:31:42.809Z,5.28
2023-03-17T11:33:13.659Z,5.48
2023-03-17T11:34:27.547Z,5.67
2023-03-17T11:35:42.231Z,6.08
2023-03-17T11:37:05.274Z,5.40
2023-03-17T11:38:20.645Z,5.35
2023-03-17T11:39:56.138Z,5.02
2023-03-17T11:41:06.845Z,5.30
2023-03-17T11:42:21.209Z,5.23
2023-03-17T11:43:28.570Z,5.60
2023-03-17T11:44:41.578Z,6.62
2023-03-17T11:45:56.153Z,7.00
2023-03-17T11:47:13.893Z,8.32
2023-03-17T11:48:44.362Z,13.23
2023-03-17T11:50:01.636Z,6.77
2023-03-17T11:51:26.047Z,6.12
2023-03-17T11:53:01.567Z,5.78
2023-03-17T11:54:09.528Z,5.83
2023-03-17T11:55:44.809Z,5.98
2023-03-17T11:56:51.887Z,6.05
2023-03-17T11:58:01.411Z,5.75
2023-03-17T11:59:11.091Z,5.63
2023-03-17T12:00:22.980Z,6.13
2023-03-17T12:01:29.638Z,5.60
2023-03-17T12:02:43.498Z,7.70
2023-03-17T12:03:51.749Z,6.95
2023-03-17T12:05:03.430Z,5.77
2023-03-17T12:06:15.901Z,6.02
2023-03-17T12:07:51.036Z,6.02
2023-03-17T12:09:14.995Z,7.12
2023-03-17T12:10:39.751Z,6.22
2023-03-17T12:11:45.854Z,6.48
2023-03-17T12:12:55.212Z,5.40
2023-03-17T12:14:06.668Z,5.83
2023-03-17T12:15:22.757Z,5.87
2023-03-17T12:16:27.396Z,6.90
2023-03-17T12:17:44.661Z,6.70
2023-03-17T12:19:11.028Z,6.88
2023-03-17T12:20:22.743Z,6.08
2023-03-17T12:21:45.034Z,5.62
2023-03-17T12:22:59.012Z,5.55
2023-03-17T12:24:10.935Z,5.42
2023-03-17T12:25:20.665Z,5.52
2023-03-17T12:26:35.610Z,5.92
2023-03-17T12:27:46.647Z,6.15
2023-03-17T12:28:58.376Z,5.78
2023-03-17T12:30:16.106Z,5.67
2023-03-17T12:31:25.135Z,5.33
2023-03-17T12:32:37.571Z,6.58
2023-03-17T12:33:52.610Z,7.08
2023-03-17T12:35:02.336Z,6.12
2023-03-17T12:36:07.476Z,5.50
2023-03-17T12:37:09.200Z,5.47
2023-03-17T12:38:56.954Z,5.62
2023-03-17T12:40:09.490Z,6.38
2023-03-17T12:41:32.397Z,6.12
2023-03-17T12:43:14.218Z,5.58
2023-03-17T12:44:21.423Z,6.18
2023-03-17T12:45:48.285Z,5.75
2023-03-17T12:46:58.924Z,6.23
2023-03-17T12:48:25.506Z,6.10
2023-03-17T12:50:09.632Z,6.23
2023-03-17T12:51:38.741Z,6.42
2023-03-17T12:53:12.560Z,6.38
2023-03-17T12:54:26.386Z,6.15
2023-03-17T12:55:33.882Z,14.27
2023-03-17T12:56:39.440Z,6.00
2023-03-17T12:57:47.318Z,6.10
2023-03-17T12:58:52.106Z,5.88
2023-03-17T13:00:19.311Z,156.27
2023-03-17T13:01:31.961Z,42.38
2023-03-17T13:02:38.387Z,70.02
2023-03-17T13:04:07.198Z,124.50
2023-03-17T13:05:16.634Z,29.55
2023-03-17T13:06:20.499Z,45.50
2023-03-17T13:07:32.410Z,8.95
2023-03-17T13:08:39.295Z,8.18
2023-03-17T13:10:11.470Z,14.10
2023-03-17T13:11:37.836Z,14.53
2023-03-17T13:12:42.373Z,29.12
2023-03-17T13:13:45.516Z,19.40
2023-03-17T13:14:51.590Z,8.10
2023-03-17T13:15:56.001Z,9.55
2023-03-17T13:17:23.530Z,33.05
2023-03-17T13:18:34.285Z,31.93
2023-03-17T13:19:54.817Z,44.18
2023-03-17T13:20:56.350Z,47.67
2023-03-17T13:22:20.730Z,45.45
2023-03-17T13:23:41.029Z,17.08
2023-03-17T13:24:42.583Z,41.42
2023-03-17T13:25:46.931Z,14.35
2023-03-17T13:26:55.244Z,10.15
2023-03-17T13:28:52.367Z,6.93
2023-03-17T13:29:53.960Z,7.02
2023-03-17T13:31:14.283Z,16.10
2023-03-17T13:32:15.887Z,27.55
2023-03-17T13:33:20.967Z,7.30
2023-03-17T13:34:22.591Z,8.35
2023-03-17T13:35:57.720Z,7.87
2023-03-17T13:37:14.704Z,7.27
2023-03-17T13:38:35.025Z,8.47
2023-03-17T13:39:56.862Z,7.97
2023-03-17T13:41:01.238Z,14.87
2023-03-17T13:42:29.153Z,8.87
2023-03-17T13:43:58.915Z,7.62
2023-03-17T13:45:03.184Z,7.25
2023-03-17T13:46:33.474Z,7.20
2023-03-17T13:47:39.297Z,7.33
2023-03-17T13:48:40.950Z,8.35
2023-03-17T13:49:48.178Z,8.00
2023-03-17T13:50:58.122Z,7.87
2023-03-17T13:52:14.081Z,8.38
2023-03-17T13:53:15.721Z,8.53
2023-03-17T13:54:26.421Z,9.00
2023-03-17T13:55:34.123Z,10.45
2023-03-17T13:56:41.926Z,8.67
2023-03-17T13:58:13.164Z,9.48
2023-03-17T13:59:20.158Z,11.23
2023-03-17T14:00:26.216Z,11.37
2023-03-17T14:01:33.970Z,20.47
2023-03-17T14:02:39.732Z,16.23
2023-03-17T14:03:48.171Z,10.93
2023-03-17T14:05:02.700Z,9.22
2023-03-17T14:06:07.593Z,9.97
2023-03-17T14:07:16.910Z,7.82
2023-03-17T14:08:28.697Z,7.85
2023-03-17T14:09:40.418Z,7.82
2023-03-17T14:10:42.815Z,9.02
2023-03-17T14:11:47.791Z,8.03
2023-03-17T14:13:17.828Z,7.55
2023-03-17T14:15:18.033Z,7.08
2023-03-17T14:16:27.170Z,7.13